sensor_id;sensor_type;location;lat;lon;timestamp;pressure;altitude;pressure_sealevel;temperature;humidity
66664;BME280;59683;51.428;-1.994;2023-04-04T11:32:42;101858.59;;;18.60;35.99
66664;BME280;59683;51.428;-1.994;2023-04-04T12:12:15;101836.88;;;19.10;34.59
66664;BME280;59683;51.428;-1.994;2023-04-04T13:28:15;101762.22;;;21.33;30.62
66664;BME280;59683;51.428;-1.994;2023-04-04T13:30:40;101752.44;;;20.82;33.14
66664;BME280;59683;51.428;-1.994;2023-04-04T13:33:10;101738.19;;;21.56;31.50
66664;BME280;59683;51.428;-1.994;2023-04-04T13:35:37;101747.63;;;21.85;30.70
66664;BME280;59683;51.428;-1.994;2023-04-04T13:38:02;101740.38;;;22.35;29.88
66664;BME280;59683;51.428;-1.994;2023-04-04T13:40:28;101740.88;;;22.38;28.86
66664;BME280;59683;51.428;-1.994;2023-04-04T13:42:53;101731.47;;;21.61;30.83
66664;BME280;59683;51.428;-1.994;2023-04-04T13:45:19;101724.63;;;20.65;31.13
66664;BME280;59683;51.428;-1.994;2023-04-04T13:47:44;101711.53;;;21.29;32.30
66664;BME280;59683;51.428;-1.994;2023-04-04T13:50:10;101713.16;;;21.05;30.55
66664;BME280;59683;51.428;-1.994;2023-04-04T13:52:35;101707.38;;;21.43;30.65
66664;BME280;59683;51.428;-1.994;2023-04-04T13:55:02;101721.50;;;22.10;30.09
66664;BME280;59683;51.428;-1.994;2023-04-04T13:57:27;101703.00;;;21.42;31.01
66664;BME280;59683;51.428;-1.994;2023-04-04T13:59:53;101704.81;;;22.06;30.20
66664;BME280;59683;51.428;-1.994;2023-04-04T14:02:20;101708.88;;;22.27;29.84
66664;BME280;59683;51.428;-1.994;2023-04-04T14:04:46;101714.13;;;21.71;30.94
66664;BME280;59683;51.428;-1.994;2023-04-04T14:07:12;101695.94;;;21.49;31.06
66664;BME280;59683;51.428;-1.994;2023-04-04T14:09:37;101708.91;;;22.66;29.15
66664;BME280;59683;51.428;-1.994;2023-04-04T14:12:03;101703.22;;;22.61;29.95
66664;BME280;59683;51.428;-1.994;2023-04-04T14:14:28;101704.16;;;21.88;30.77
66664;BME280;59683;51.428;-1.994;2023-04-04T14:16:54;101703.50;;;21.62;31.41
66664;BME280;59683;51.428;-1.994;2023-04-04T14:19:19;101697.75;;;22.22;30.77
66664;BME280;59683;51.428;-1.994;2023-04-04T14:21:45;101704.69;;;22.72;28.18
66664;BME280;59683;51.428;-1.994;2023-04-04T14:24:10;101693.19;;;22.06;29.35
66664;BME280;59683;51.428;-1.994;2023-04-04T14:26:35;101684.31;;;21.89;30.88
66664;BME280;59683;51.428;-1.994;2023-04-04T14:29:01;101680.44;;;21.43;30.69
66664;BME280;59683;51.428;-1.994;2023-04-04T14:31:27;101683.28;;;22.15;29.86
66664;BME280;59683;51.428;-1.994;2023-04-04T14:33:53;101682.28;;;21.50;30.82
66664;BME280;59683;51.428;-1.994;2023-04-04T14:36:18;101697.81;;;22.61;30.12
66664;BME280;59683;51.428;-1.994;2023-04-04T14:38:45;101693.34;;;22.76;28.49
66664;BME280;59683;51.428;-1.994;2023-04-04T14:41:11;101686.81;;;22.15;30.05
66664;BME280;59683;51.428;-1.994;2023-04-04T14:43:37;101679.41;;;22.65;29.60
66664;BME280;59683;51.428;-1.994;2023-04-04T14:46:03;101677.06;;;22.62;29.61
66664;BME280;59683;51.428;-1.994;2023-04-04T14:48:29;101684.09;;;22.32;30.76
66664;BME280;59683;51.428;-1.994;2023-04-04T14:50:54;101680.41;;;22.08;32.46
66664;BME280;59683;51.428;-1.994;2023-04-04T14:53:20;101681.38;;;22.71;29.38
66664;BME280;59683;51.428;-1.994;2023-04-04T14:55:45;101678.91;;;22.61;29.76
66664;BME280;59683;51.428;-1.994;2023-04-04T14:58:11;101668.47;;;22.58;29.36
66664;BME280;59683;51.428;-1.994;2023-04-04T15:00:37;101661.56;;;21.26;33.65
66664;BME280;59683;51.428;-1.994;2023-04-04T15:03:02;101654.34;;;21.68;31.65
66664;BME280;59683;51.428;-1.994;2023-04-04T15:05:30;101654.47;;;21.99;31.25
66664;BME280;59683;51.428;-1.994;2023-04-04T15:07:56;101641.81;;;21.99;30.75
66664;BME280;59683;51.428;-1.994;2023-04-04T15:10:22;101635.81;;;21.65;32.76
66664;BME280;59683;51.428;-1.994;2023-04-04T15:12:47;101632.69;;;22.25;31.01
66664;BME280;59683;51.428;-1.994;2023-04-04T15:15:13;101641.31;;;22.04;31.79
66664;BME280;59683;51.428;-1.994;2023-04-04T15:17:40;101636.63;;;22.45;30.50
66664;BME280;59683;51.428;-1.994;2023-04-04T15:20:06;101638.69;;;22.43;30.11
66664;BME280;59683;51.428;-1.994;2023-04-04T15:22:32;101633.78;;;21.83;30.89
66664;BME280;59683;51.428;-1.994;2023-04-04T15:24:58;101631.53;;;22.19;31.64
66664;BME280;59683;51.428;-1.994;2023-04-04T15:27:23;101635.31;;;22.49;31.00
66664;BME280;59683;51.428;-1.994;2023-04-04T15:29:48;101626.66;;;21.98;31.73
66664;BME280;59683;51.428;-1.994;2023-04-04T15:32:14;101630.78;;;21.78;31.39
66664;BME280;59683;51.428;-1.994;2023-04-04T15:34:39;101621.69;;;21.38;33.33
66664;BME280;59683;51.428;-1.994;2023-04-04T15:37:05;101623.03;;;21.50;33.19
66664;BME280;59683;51.428;-1.994;2023-04-04T15:39:31;101616.13;;;21.40;32.89
66664;BME280;59683;51.428;-1.994;2023-04-04T15:41:58;101625.38;;;21.70;31.55
66664;BME280;59683;51.428;-1.994;2023-04-04T15:44:24;101621.84;;;19.93;34.07
66664;BME280;59683;51.428;-1.994;2023-04-04T15:46:49;101612.94;;;19.23;34.73
66664;BME280;59683;51.428;-1.994;2023-04-04T15:49:15;101614.53;;;18.98;36.96
66664;BME280;59683;51.428;-1.994;2023-04-04T15:51:41;101611.78;;;18.62;36.97
66664;BME280;59683;51.428;-1.994;2023-04-04T15:54:11;101613.47;;;19.08;36.64
66664;BME280;59683;51.428;-1.994;2023-04-04T15:56:37;101607.72;;;19.03;37.40
66664;BME280;59683;51.428;-1.994;2023-04-04T15:59:03;101609.03;;;18.81;35.61
66664;BME280;59683;51.428;-1.994;2023-04-04T16:01:30;101606.28;;;18.36;38.24
66664;BME280;59683;51.428;-1.994;2023-04-04T16:03:56;101604.13;;;18.67;38.37
66664;BME280;59683;51.428;-1.994;2023-04-04T16:06:21;101597.44;;;18.26;38.37
66664;BME280;59683;51.428;-1.994;2023-04-04T16:08:46;101606.72;;;17.94;39.74
66664;BME280;59683;51.428;-1.994;2023-04-04T16:11:12;101594.34;;;17.73;40.24
66664;BME280;59683;51.428;-1.994;2023-04-04T16:13:37;101595.41;;;17.53;40.35
66664;BME280;59683;51.428;-1.994;2023-04-04T16:16:03;101595.47;;;17.71;39.60
66664;BME280;59683;51.428;-1.994;2023-04-04T16:18:28;101586.16;;;17.94;39.61
66664;BME280;59683;51.428;-1.994;2023-04-04T16:20:54;101585.28;;;18.31;39.93
66664;BME280;59683;51.428;-1.994;2023-04-04T16:23:19;101584.47;;;18.76;39.08
66664;BME280;59683;51.428;-1.994;2023-04-04T16:25:45;101587.03;;;18.78;38.12
66664;BME280;59683;51.428;-1.994;2023-04-04T16:28:11;101586.47;;;19.28;39.46
66664;BME280;59683;51.428;-1.994;2023-04-04T16:30:36;101581.28;;;19.26;36.96
66664;BME280;59683;51.428;-1.994;2023-04-04T16:33:02;101571.38;;;19.27;38.09
66664;BME280;59683;51.428;-1.994;2023-04-04T16:35:28;101581.09;;;19.98;37.66
66664;BME280;59683;51.428;-1.994;2023-04-04T16:37:53;101583.91;;;19.62;36.98
66664;BME280;59683;51.428;-1.994;2023-04-04T16:40:19;101574.09;;;19.53;37.47
66664;BME280;59683;51.428;-1.994;2023-04-04T16:42:45;101576.03;;;19.07;38.45
66664;BME280;59683;51.428;-1.994;2023-04-04T16:45:10;101564.94;;;19.20;38.03
66664;BME280;59683;51.428;-1.994;2023-04-04T16:47:36;101563.38;;;19.61;36.18
66664;BME280;59683;51.428;-1.994;2023-04-04T16:50:02;101561.94;;;18.87;38.44
66664;BME280;59683;51.428;-1.994;2023-04-04T16:52:28;101555.25;;;18.55;40.03
66664;BME280;59683;51.428;-1.994;2023-04-04T16:54:54;101548.63;;;18.77;39.74
66664;BME280;59683;51.428;-1.994;2023-04-04T16:57:19;101559.28;;;18.87;38.56
66664;BME280;59683;51.428;-1.994;2023-04-04T16:59:45;101552.47;;;18.65;38.50
66664;BME280;59683;51.428;-1.994;2023-04-04T17:02:10;101548.88;;;18.11;41.21
66664;BME280;59683;51.428;-1.994;2023-04-04T17:04:36;101556.88;;;17.73;41.55
66664;BME280;59683;51.428;-1.994;2023-04-04T17:07:03;101552.41;;;17.55;42.19
66664;BME280;59683;51.428;-1.994;2023-04-04T17:09:28;101549.31;;;17.59;41.63
66664;BME280;59683;51.428;-1.994;2023-04-04T17:11:55;101541.56;;;17.56;41.79
66664;BME280;59683;51.428;-1.994;2023-04-04T17:14:21;101534.72;;;17.24;42.94
66664;BME280;59683;51.428;-1.994;2023-04-04T17:16:47;101534.19;;;17.11;43.01
66664;BME280;59683;51.428;-1.994;2023-04-04T17:19:12;101536.03;;;16.82;46.58
66664;BME280;59683;51.428;-1.994;2023-04-04T17:21:38;101546.56;;;17.12;44.63
66664;BME280;59683;51.428;-1.994;2023-04-04T17:24:03;101537.84;;;16.81;45.37
66664;BME280;59683;51.428;-1.994;2023-04-04T17:26:29;101537.66;;;16.63;45.37
66664;BME280;59683;51.428;-1.994;2023-04-04T17:28:54;101539.97;;;16.27;49.32
66664;BME280;59683;51.428;-1.994;2023-04-04T17:31:20;101538.56;;;16.14;49.20
66664;BME280;59683;51.428;-1.994;2023-04-04T17:33:45;101537.53;;;16.05;50.54
66664;BME280;59683;51.428;-1.994;2023-04-04T17:36:11;101532.25;;;15.63;56.56
66664;BME280;59683;51.428;-1.994;2023-04-04T17:38:36;101530.59;;;15.20;59.23
66664;BME280;59683;51.428;-1.994;2023-04-04T17:41:03;101523.59;;;14.87;58.29
66664;BME280;59683;51.428;-1.994;2023-04-04T17:43:29;101524.06;;;14.49;60.78
66664;BME280;59683;51.428;-1.994;2023-04-04T17:45:55;101527.06;;;13.90;73.52
66664;BME280;59683;51.428;-1.994;2023-04-04T17:48:22;101537.69;;;13.56;68.26
66664;BME280;59683;51.428;-1.994;2023-04-04T17:51:03;101526.69;;;13.14;77.43
66664;BME280;59683;51.428;-1.994;2023-04-04T17:56:05;101539.59;;;12.59;89.37
66664;BME280;59683;51.428;-1.994;2023-04-04T17:58:30;101535.97;;;12.36;93.87
66664;BME280;59683;51.428;-1.994;2023-04-04T18:00:55;101536.03;;;12.11;100.00
66664;BME280;59683;51.428;-1.994;2023-04-04T18:03:21;101535.78;;;11.90;100.00
66664;BME280;59683;51.428;-1.994;2023-04-04T18:05:48;101532.56;;;11.72;100.00
66664;BME280;59683;51.428;-1.994;2023-04-04T18:08:13;101533.13;;;11.52;100.00
66664;BME280;59683;51.428;-1.994;2023-04-04T18:10:39;101534.25;;;11.35;100.00
66664;BME280;59683;51.428;-1.994;2023-04-04T18:13:06;101531.16;;;11.15;100.00
66664;BME280;59683;51.428;-1.994;2023-04-04T18:15:32;101520.94;;;10.97;100.00
66664;BME280;59683;51.428;-1.994;2023-04-04T18:17:57;101530.09;;;10.78;100.00
66664;BME280;59683;51.428;-1.994;2023-04-04T18:20:23;101520.72;;;10.60;100.00
66664;BME280;59683;51.428;-1.994;2023-04-04T18:22:49;101528.34;;;10.37;100.00
66664;BME280;59683;51.428;-1.994;2023-04-04T18:25:19;101527.13;;;10.14;100.00
66664;BME280;59683;51.428;-1.994;2023-04-04T18:27:44;101524.31;;;9.89;100.00
66664;BME280;59683;51.428;-1.994;2023-04-04T18:30:10;101532.75;;;9.67;100.00
66664;BME280;59683;51.428;-1.994;2023-04-04T18:32:36;101534.06;;;9.45;100.00
